Terminal Aerodrome Forecast
Issued by NWS Mt. Holly, NJ

Home | Current Version | Previous Version | Text Only | Print | Product List | Glossary On
Versions: 1 2 3 4 5 6 7 8 9 10 11 12 13 14 15 16 17 18 19 20
000
FTUS41 KPHI 190500
TAFRDG
TAF
KRDG 190527Z 1906/2006 01002KT P6SM FEW080
     FM191300 04006KT P6SM FEW060
     FM191800 09007KT P6SM SCT060
     FM192100 12007KT P6SM SCT060
     FM200300 12005KT P6SM BKN035=

USA.gov is the U.S. government's official web portal to all federal, state and local government web resources and services.